Fidato — PB5970 — position and weather

sailwx.info

Track history (hours):
 
Tides and Currents Weather Stations Pressure Air Temp Water Temp Dewpoint Dewpoint Depression Visibility Wind Speed Wind Dir Waves Ship Positions

Fidato

Last reported at 2017-Mar-30 00:33 UTC. Time now 2017-Mar-30 01:06 UTC.
Position N 52°28' E 004°37'.

Length 135 m; draft 2.5 m.

Type: Ship. MMSI: 244670975.

Date/timePositionNaut miles runAvg speedWind from/ knotsBaromVisibWave heightAir tempDewpointWater temp
2017-Mar-30 00:33N 52°28' E 004°37'0 0.0
2017-Mar-29 23:33N 52°28' E 004°37'0 0.0
2017-Mar-29 22:33N 52°28' E 004°37'0 0.1
2017-Mar-29 21:33N 52°28' E 004°37'1 1.2
2017-Mar-29 20:33N 52°28' E 004°35'0 0.0
2017-Mar-29 19:33N 52°28' E 004°35'0 0.3
2017-Mar-29 18:33N 52°28' E 004°35'0 0.4
2017-Mar-29 17:33N 52°28' E 004°36'0 0.0
2017-Mar-29 16:33N 52°28' E 004°36'0 0.1
2017-Mar-29 15:33N 52°28' E 004°36'0 0.0
2017-Mar-29 14:33N 52°28' E 004°36'0 0.0
2017-Mar-29 13:33N 52°28' E 004°36'0 0.0
2017-Mar-29 12:33N 52°28' E 004°36'0 0.0
2017-Mar-29 11:33N 52°28' E 004°36'0 0.0
2017-Mar-29 10:33N 52°28' E 004°36'0 0.0
2017-Mar-29 09:33N 52°28' E 004°36'0 0.0
2017-Mar-29 08:33N 52°28' E 004°36'0 0.0
2017-Mar-29 07:33N 52°28' E 004°36'0 0.0
2017-Mar-29 06:32N 52°28' E 004°36'0 0.0
2017-Mar-29 05:33N 52°28' E 004°36'0 0.0
2017-Mar-29 04:33N 52°28' E 004°36'0 0.0
2017-Mar-29 03:33N 52°28' E 004°36'0 0.0
2017-Mar-29 02:33N 52°28' E 004°36'0 0.0
2017-Mar-29 01:33N 52°28' E 004°36'0 0.0
2017-Mar-29 00:33N 52°28' E 004°36'0 0.0
2017-Mar-28 23:33N 52°28' E 004°36'0 0.0
2017-Mar-28 22:33N 52°28' E 004°36'0 0.0
2017-Mar-28 21:33N 52°28' E 004°36'0 0.0
2017-Mar-28 20:33N 52°28' E 004°36'0 0.0
2017-Mar-28 19:33N 52°28' E 004°36'0 0.0
2017-Mar-28 18:33N 52°28' E 004°36'0 0.0
2017-Mar-28 17:33N 52°28' E 004°36'0 0.0
2017-Mar-28 16:33N 52°28' E 004°36'0 0.0
2017-Mar-28 15:33N 52°28' E 004°36'0 0.0
2017-Mar-28 14:33N 52°28' E 004°36'0 0.0
2017-Mar-28 13:33N 52°28' E 004°36'0 0.1
2017-Mar-28 12:33N 52°28' E 004°36'4 3.6
2017-Mar-28 11:33N 52°27' E 004°41'9 9.2
2017-Mar-28 10:34N 52°23' E 004°55'2 1.8
2017-Mar-28 09:34N 52°22' E 004°57'1 0.5
2017-Mar-28 08:33N 52°23' E 004°57'6 5.9
2017-Mar-28 07:33N 52°24' E 005°07'9 9.4
2017-Mar-28 06:33N 52°30' E 005°19'5 5.0
2017-Mar-28 05:33N 52°33' E 005°26'0 0.0
2017-Mar-28 04:33N 52°33' E 005°26'0 0.0
2017-Mar-28 03:33N 52°33' E 005°26'0 0.0
2017-Mar-28 02:33N 52°33' E 005°26'0 0.0
2017-Mar-28 01:33N 52°33' E 005°26'0 0.0
2017-Mar-28 00:33N 52°33' E 005°26'0 0.0
2017-Mar-27 23:33N 52°33' E 005°26'0 0.0
2017-Mar-27 22:33N 52°33' E 005°26'0 0.0
2017-Mar-27 21:33N 52°33' E 005°26'0 0.0
2017-Mar-27 20:33N 52°33' E 005°26'0 0.0
2017-Mar-27 19:33N 52°33' E 005°26'0 0.0
2017-Mar-27 18:33N 52°33' E 005°26'0 0.0
2017-Mar-27 17:33N 52°33' E 005°26'0 0.0
2017-Mar-27 16:33N 52°33' E 005°26'8 7.8
2017-Mar-27 15:33N 52°37' E 005°37'8 7.8
2017-Mar-27 14:34N 52°37' E 005°49'8 8.0
2017-Mar-27 13:33N 52°38' E 006°02'4 0.9
2017-Mar-27 09:28N 52°35' E 006°06'0 0.0
2017-Mar-27 08:33N 52°35' E 006°06'0 0.0
2017-Mar-27 07:33N 52°35' E 006°06'0 0.0
2017-Mar-27 06:33N 52°35' E 006°06'0 0.0
2017-Mar-27 05:33N 52°35' E 006°06'0 0.0
2017-Mar-27 04:31N 52°35' E 006°06'0 0.0
2017-Mar-27 03:33N 52°35' E 006°06'0 0.0
2017-Mar-27 02:33N 52°35' E 006°06'0 0.0
2017-Mar-27 01:29N 52°35' E 006°06'0 0.0
2017-Mar-27 00:33N 52°35' E 006°06'0 0.0
2017-Mar-26 23:33N 52°35' E 006°06'0 0.0
2017-Mar-26 22:33N 52°35' E 006°06'0 0.0
2017-Mar-26 21:17N 52°35' E 006°06'0 0.0
2017-Mar-26 19:33N 52°35' E 006°06'0 0.0
2017-Mar-26 18:32N 52°35' E 006°06'0 0.0
2017-Mar-26 17:33N 52°35' E 006°06'0 0.0
2017-Mar-26 16:27N 52°35' E 006°06'0 0.0
2017-Mar-26 15:32N 52°35' E 006°06'0 0.0
2017-Mar-26 14:32N 52°35' E 006°06'0 0.0
2017-Mar-26 12:24N 52°35' E 006°06'0 0.0
2017-Mar-26 11:31N 52°35' E 006°06'0 0.0
2017-Mar-26 10:32N 52°35' E 006°06'0 0.0
2017-Mar-26 09:33N 52°35' E 006°06'0 0.0
2017-Mar-26 08:14N 52°35' E 006°06'0 0.0
2017-Mar-26 07:33N 52°35' E 006°06'0 0.0
2017-Mar-26 06:32N 52°35' E 006°06'0 0.0
2017-Mar-26 05:32N 52°35' E 006°06'0 0.0
2017-Mar-26 04:32N 52°35' E 006°06'0 0.0
2017-Mar-26 03:32N 52°35' E 006°06'0 0.0
2017-Mar-26 02:15N 52°35' E 006°06'0 0.0
2017-Mar-26 01:31N 52°35' E 006°06'0 0.0
2017-Mar-26 00:30N 52°35' E 006°06'0 0.0
2017-Mar-25 23:23N 52°35' E 006°06'0 0.0
2017-Mar-25 22:31N 52°35' E 006°06'0 0.0
2017-Mar-25 21:32N 52°35' E 006°06'0 0.1
2017-Mar-25 20:33N 52°35' E 006°06'3 3.3
2017-Mar-25 19:32N 52°38' E 006°04'5 5.4
2017-Mar-25 18:33N 52°38' E 005°56'6 5.9
2017-Mar-25 17:33N 52°37' E 005°46'4 4.1
2017-Mar-25 16:33N 52°36' E 005°39'7 7.1
2017-Mar-25 15:33N 52°34' E 005°28'4 4.1
2017-Mar-25 14:33N 52°31' E 005°25'8 7.8
2017-Mar-25 13:33N 52°27' E 005°13'8 8.0
2017-Mar-25 12:33N 52°23' E 005°02'3 3.1
2017-Mar-25 11:34N 52°23' E 004°57'6 6.3
2017-Mar-25 10:33N 52°17' E 005°01'7 7.3
2017-Mar-25 09:32N 52°10' E 004°60'7 6.9
2017-Mar-25 08:33N 52°04' E 005°06'5 4.8
2017-Mar-25 07:33N 52°00' E 005°11'5 5.5
2017-Mar-25 06:33N 51°58' E 005°19'9 2.0
2017-Mar-25 02:07N 51°54' E 005°32'0 0.0
2017-Mar-25 00:29N 51°54' E 005°32'0 0.0
2017-Mar-24 23:32N 51°54' E 005°32'1 0.3
2017-Mar-24 21:28N 51°54' E 005°33'9 9.5
2017-Mar-24 20:33N 51°53' E 005°47'7 7.4
2017-Mar-24 19:33N 51°52' E 005°59'8 8.0
2017-Mar-24 18:33N 51°50' E 006°11'9 8.6
2017-Mar-24 17:33N 51°45' E 006°23'8 7.7
2017-Mar-24 16:27N 51°39' E 006°33'7 6.5
2017-Mar-24 15:23N 51°34' E 006°41'6 7.3
2017-Mar-24 14:33N 51°28' E 006°41'19 6.3
2017-Mar-24 11:33N 51°10' E 006°48'14 7.0
2017-Mar-24 09:31N 50°58' E 006°60'7 6.7
2017-Mar-24 08:31N 50°51' E 007°01'7 7.6
2017-Mar-24 07:33N 50°45' E 007°06'104 4.9
2017-Mar-23 10:09N 49°14' E 008°23'103 2.4
2017-Mar-21 16:07N 47°36' E 007°36'0 0.0
2017-Mar-21 03:30N 47°36' E 007°36'  
Track history (hours):
 
Tides and Currents Weather Stations Pressure Air Temp Water Temp Dewpoint Dewpoint Depression Visibility Wind Speed Wind Dir Waves Ship Positions

Fidato

Last reported at 2017-Mar-30 00:33 UTC. Time now 2017-Mar-30 01:06 UTC.
Position N 52°28' E 004°37'.

Length 135 m; draft 2.5 m.

Type: Ship. MMSI: 244670975.

Date/timePositionNaut miles runAvg speedWind from/ knotsBaromVisibWave heightAir tempDewpointWater temp
2017-Mar-30 00:33N 52°28' E 004°37'0 0.0
2017-Mar-29 23:33N 52°28' E 004°37'0 0.0
2017-Mar-29 22:33N 52°28' E 004°37'0 0.1
2017-Mar-29 21:33N 52°28' E 004°37'1 1.2
2017-Mar-29 20:33N 52°28' E 004°35'0 0.0
2017-Mar-29 19:33N 52°28' E 004°35'0 0.3
2017-Mar-29 18:33N 52°28' E 004°35'0 0.4
2017-Mar-29 17:33N 52°28' E 004°36'0 0.0
2017-Mar-29 16:33N 52°28' E 004°36'0 0.1
2017-Mar-29 15:33N 52°28' E 004°36'0 0.0
2017-Mar-29 14:33N 52°28' E 004°36'0 0.0
2017-Mar-29 13:33N 52°28' E 004°36'0 0.0
2017-Mar-29 12:33N 52°28' E 004°36'0 0.0
2017-Mar-29 11:33N 52°28' E 004°36'0 0.0
2017-Mar-29 10:33N 52°28' E 004°36'0 0.0
2017-Mar-29 09:33N 52°28' E 004°36'0 0.0
2017-Mar-29 08:33N 52°28' E 004°36'0 0.0
2017-Mar-29 07:33N 52°28' E 004°36'0 0.0
2017-Mar-29 06:32N 52°28' E 004°36'0 0.0
2017-Mar-29 05:33N 52°28' E 004°36'0 0.0
2017-Mar-29 04:33N 52°28' E 004°36'0 0.0
2017-Mar-29 03:33N 52°28' E 004°36'0 0.0
2017-Mar-29 02:33N 52°28' E 004°36'0 0.0
2017-Mar-29 01:33N 52°28' E 004°36'0 0.0
2017-Mar-29 00:33N 52°28' E 004°36'0 0.0
2017-Mar-28 23:33N 52°28' E 004°36'0 0.0
2017-Mar-28 22:33N 52°28' E 004°36'0 0.0
2017-Mar-28 21:33N 52°28' E 004°36'0 0.0
2017-Mar-28 20:33N 52°28' E 004°36'0 0.0
2017-Mar-28 19:33N 52°28' E 004°36'0 0.0
2017-Mar-28 18:33N 52°28' E 004°36'0 0.0
2017-Mar-28 17:33N 52°28' E 004°36'0 0.0
2017-Mar-28 16:33N 52°28' E 004°36'0 0.0
2017-Mar-28 15:33N 52°28' E 004°36'0 0.0
2017-Mar-28 14:33N 52°28' E 004°36'0 0.0
2017-Mar-28 13:33N 52°28' E 004°36'0 0.1
2017-Mar-28 12:33N 52°28' E 004°36'4 3.6
2017-Mar-28 11:33N 52°27' E 004°41'9 9.2
2017-Mar-28 10:34N 52°23' E 004°55'2 1.8
2017-Mar-28 09:34N 52°22' E 004°57'1 0.5
2017-Mar-28 08:33N 52°23' E 004°57'6 5.9
2017-Mar-28 07:33N 52°24' E 005°07'9 9.4
2017-Mar-28 06:33N 52°30' E 005°19'5 5.0
2017-Mar-28 05:33N 52°33' E 005°26'0 0.0
2017-Mar-28 04:33N 52°33' E 005°26'0 0.0
2017-Mar-28 03:33N 52°33' E 005°26'0 0.0
2017-Mar-28 02:33N 52°33' E 005°26'0 0.0
2017-Mar-28 01:33N 52°33' E 005°26'0 0.0
2017-Mar-28 00:33N 52°33' E 005°26'0 0.0
2017-Mar-27 23:33N 52°33' E 005°26'0 0.0
2017-Mar-27 22:33N 52°33' E 005°26'0 0.0
2017-Mar-27 21:33N 52°33' E 005°26'0 0.0
2017-Mar-27 20:33N 52°33' E 005°26'0 0.0
2017-Mar-27 19:33N 52°33' E 005°26'0 0.0
2017-Mar-27 18:33N 52°33' E 005°26'0 0.0
2017-Mar-27 17:33N 52°33' E 005°26'0 0.0
2017-Mar-27 16:33N 52°33' E 005°26'8 7.8
2017-Mar-27 15:33N 52°37' E 005°37'8 7.8
2017-Mar-27 14:34N 52°37' E 005°49'8 8.0
2017-Mar-27 13:33N 52°38' E 006°02'4 0.9
2017-Mar-27 09:28N 52°35' E 006°06'0 0.0
2017-Mar-27 08:33N 52°35' E 006°06'0 0.0
2017-Mar-27 07:33N 52°35' E 006°06'0 0.0
2017-Mar-27 06:33N 52°35' E 006°06'0 0.0
2017-Mar-27 05:33N 52°35' E 006°06'0 0.0
2017-Mar-27 04:31N 52°35' E 006°06'0 0.0
2017-Mar-27 03:33N 52°35' E 006°06'0 0.0
2017-Mar-27 02:33N 52°35' E 006°06'0 0.0
2017-Mar-27 01:29N 52°35' E 006°06'0 0.0
2017-Mar-27 00:33N 52°35' E 006°06'0 0.0
2017-Mar-26 23:33N 52°35' E 006°06'0 0.0
2017-Mar-26 22:33N 52°35' E 006°06'0 0.0
2017-Mar-26 21:17N 52°35' E 006°06'0 0.0
2017-Mar-26 19:33N 52°35' E 006°06'0 0.0
2017-Mar-26 18:32N 52°35' E 006°06'0 0.0
2017-Mar-26 17:33N 52°35' E 006°06'0 0.0
2017-Mar-26 16:27N 52°35' E 006°06'0 0.0
2017-Mar-26 15:32N 52°35' E 006°06'0 0.0
2017-Mar-26 14:32N 52°35' E 006°06'0 0.0
2017-Mar-26 12:24N 52°35' E 006°06'0 0.0
2017-Mar-26 11:31N 52°35' E 006°06'0 0.0
2017-Mar-26 10:32N 52°35' E 006°06'0 0.0
2017-Mar-26 09:33N 52°35' E 006°06'0 0.0
2017-Mar-26 08:14N 52°35' E 006°06'0 0.0
2017-Mar-26 07:33N 52°35' E 006°06'0 0.0
2017-Mar-26 06:32N 52°35' E 006°06'0 0.0
2017-Mar-26 05:32N 52°35' E 006°06'0 0.0
2017-Mar-26 04:32N 52°35' E 006°06'0 0.0
2017-Mar-26 03:32N 52°35' E 006°06'0 0.0
2017-Mar-26 02:15N 52°35' E 006°06'0 0.0
2017-Mar-26 01:31N 52°35' E 006°06'0 0.0
2017-Mar-26 00:30N 52°35' E 006°06'0 0.0
2017-Mar-25 23:23N 52°35' E 006°06'0 0.0
2017-Mar-25 22:31N 52°35' E 006°06'0 0.0
2017-Mar-25 21:32N 52°35' E 006°06'0 0.1
2017-Mar-25 20:33N 52°35' E 006°06'3 3.3
2017-Mar-25 19:32N 52°38' E 006°04'5 5.4
2017-Mar-25 18:33N 52°38' E 005°56'6 5.9
2017-Mar-25 17:33N 52°37' E 005°46'4 4.1
2017-Mar-25 16:33N 52°36' E 005°39'7 7.1
2017-Mar-25 15:33N 52°34' E 005°28'4 4.1
2017-Mar-25 14:33N 52°31' E 005°25'8 7.8
2017-Mar-25 13:33N 52°27' E 005°13'8 8.0
2017-Mar-25 12:33N 52°23' E 005°02'3 3.1
2017-Mar-25 11:34N 52°23' E 004°57'6 6.3
2017-Mar-25 10:33N 52°17' E 005°01'7 7.3
2017-Mar-25 09:32N 52°10' E 004°60'7 6.9
2017-Mar-25 08:33N 52°04' E 005°06'5 4.8
2017-Mar-25 07:33N 52°00' E 005°11'5 5.5
2017-Mar-25 06:33N 51°58' E 005°19'9 2.0
2017-Mar-25 02:07N 51°54' E 005°32'0 0.0
2017-Mar-25 00:29N 51°54' E 005°32'0 0.0
2017-Mar-24 23:32N 51°54' E 005°32'1 0.3
2017-Mar-24 21:28N 51°54' E 005°33'9 9.5
2017-Mar-24 20:33N 51°53' E 005°47'7 7.4
2017-Mar-24 19:33N 51°52' E 005°59'8 8.0
2017-Mar-24 18:33N 51°50' E 006°11'9 8.6
2017-Mar-24 17:33N 51°45' E 006°23'8 7.7
2017-Mar-24 16:27N 51°39' E 006°33'7 6.5
2017-Mar-24 15:23N 51°34' E 006°41'6 7.3
2017-Mar-24 14:33N 51°28' E 006°41'19 6.3
2017-Mar-24 11:33N 51°10' E 006°48'14 7.0
2017-Mar-24 09:31N 50°58' E 006°60'7 6.7
2017-Mar-24 08:31N 50°51' E 007°01'7 7.6
2017-Mar-24 07:33N 50°45' E 007°06'104 4.9
2017-Mar-23 10:09N 49°14' E 008°23'103 2.4
2017-Mar-21 16:07N 47°36' E 007°36'0 0.0
2017-Mar-21 03:30N 47°36' E 007°36'  

Dump ship's entire track history